sensor_id;sensor_type;location;lat;lon;timestamp;pressure;altitude;pressure_sealevel;temperature;humidity
65534;BME280;53640;55.838;37.184;2024-03-29T00:00:56;98336.69;;;3.92;42.50
65534;BME280;53640;55.838;37.184;2024-03-29T00:03:23;98250.63;;;3.41;42.27
65534;BME280;53640;55.838;37.184;2024-03-29T00:05:49;98259.09;;;3.51;42.05
65534;BME280;53640;55.838;37.184;2024-03-29T00:08:16;98396.38;;;4.41;42.09
65534;BME280;53640;55.838;37.184;2024-03-29T00:10:47;98314.44;;;3.92;42.11
65534;BME280;53640;55.838;37.184;2024-03-29T00:13:17;98334.66;;;4.01;42.34
65534;BME280;53640;55.838;37.184;2024-03-29T00:15:53;98286.72;;;3.65;42.35
65534;BME280;53640;55.838;37.184;2024-03-29T00:18:42;98291.31;;;3.78;42.43
65534;BME280;53640;55.838;37.184;2024-03-29T00:21:09;98355.53;;;4.19;42.59
65534;BME280;53640;55.838;37.184;2024-03-29T00:23:35;98382.34;;;4.39;42.36
65534;BME280;53640;55.838;37.184;2024-03-29T00:26:01;98357.78;;;4.29;42.11
65534;BME280;53640;55.838;37.184;2024-03-29T00:28:28;98365.47;;;4.38;42.02
65534;BME280;53640;55.838;37.184;2024-03-29T00:30:55;98366.91;;;4.41;41.77
65534;BME280;53640;55.838;37.184;2024-03-29T00:33:21;98348.31;;;4.19;42.74
65534;BME280;53640;55.838;37.184;2024-03-29T00:35:47;98326.06;;;4.19;42.46
65534;BME280;53640;55.838;37.184;2024-03-29T00:38:14;98371.03;;;4.43;42.23
65534;BME280;53640;55.838;37.184;2024-03-29T00:40:50;98314.09;;;4.15;42.37
65534;BME280;53640;55.838;37.184;2024-03-29T00:43:16;98273.69;;;3.96;41.92
65534;BME280;53640;55.838;37.184;2024-03-29T00:45:44;98282.75;;;4.09;41.71
65534;BME280;53640;55.838;37.184;2024-03-29T00:48:11;98338.06;;;4.43;41.91
65534;BME280;53640;55.838;37.184;2024-03-29T00:50:41;98250.38;;;3.90;41.73
65534;BME280;53640;55.838;37.184;2024-03-29T00:53:09;98332.91;;;4.55;41.83
65534;BME280;53640;55.838;37.184;2024-03-29T00:55:35;98274.13;;;4.13;41.75
65534;BME280;53640;55.838;37.184;2024-03-29T00:58:01;98298.28;;;4.33;41.79
65534;BME280;53640;55.838;37.184;2024-03-29T01:00:28;98255.34;;;4.00;41.81
65534;BME280;53640;55.838;37.184;2024-03-29T01:02:54;98280.31;;;4.20;41.55
65534;BME280;53640;55.838;37.184;2024-03-29T01:05:21;98211.25;;;3.83;41.72
65534;BME280;53640;55.838;37.184;2024-03-29T01:07:47;98261.78;;;4.19;41.99
65534;BME280;53640;55.838;37.184;2024-03-29T01:10:17;98239.06;;;3.95;42.31
65534;BME280;53640;55.838;37.184;2024-03-29T01:12:44;98237.38;;;3.87;42.22
65534;BME280;53640;55.838;37.184;2024-03-29T01:15:12;98318.69;;;4.47;42.08
65534;BME280;53640;55.838;37.184;2024-03-29T01:17:40;98260.94;;;4.12;42.59
65534;BME280;53640;55.838;37.184;2024-03-29T01:20:06;98310.44;;;4.42;42.23
65534;BME280;53640;55.838;37.184;2024-03-29T01:22:34;98307.34;;;4.39;42.12
65534;BME280;53640;55.838;37.184;2024-03-29T01:25:01;98290.03;;;4.35;42.51
65534;BME280;53640;55.838;37.184;2024-03-29T01:27:30;98292.28;;;4.31;42.64
65534;BME280;53640;55.838;37.184;2024-03-29T01:29:57;98281.13;;;4.21;42.22
65534;BME280;53640;55.838;37.184;2024-03-29T01:32:23;98170.63;;;3.59;42.50
65534;BME280;53640;55.838;37.184;2024-03-29T01:34:50;98220.09;;;3.90;42.51
65534;BME280;53640;55.838;37.184;2024-03-29T01:37:16;98217.25;;;3.98;42.10
65534;BME280;53640;55.838;37.184;2024-03-29T01:39:43;98155.19;;;3.55;42.58
65534;BME280;53640;55.838;37.184;2024-03-29T01:42:09;98134.78;;;3.54;42.55
65534;BME280;53640;55.838;37.184;2024-03-29T01:44:36;98245.72;;;4.26;42.27
65534;BME280;53640;55.838;37.184;2024-03-29T01:47:03;98128.22;;;3.43;42.32
65534;BME280;53640;55.838;37.184;2024-03-29T01:49:30;98158.75;;;3.82;42.20
65534;BME280;53640;55.838;37.184;2024-03-29T01:51:57;98227.16;;;4.17;42.28
65534;BME280;53640;55.838;37.184;2024-03-29T01:54:23;98178.75;;;3.99;42.04
65534;BME280;53640;55.838;37.184;2024-03-29T01:56:50;98145.97;;;3.77;42.42
65534;BME280;53640;55.838;37.184;2024-03-29T01:59:18;98269.00;;;4.58;42.23
65534;BME280;53640;55.838;37.184;2024-03-29T02:01:45;98197.06;;;4.02;42.61
65534;BME280;53640;55.838;37.184;2024-03-29T02:04:13;98154.59;;;3.79;42.45
65534;BME280;53640;55.838;37.184;2024-03-29T02:06:40;98115.28;;;3.66;42.25
65534;BME280;53640;55.838;37.184;2024-03-29T02:09:07;98108.88;;;3.61;42.39
65534;BME280;53640;55.838;37.184;2024-03-29T02:11:34;98206.34;;;4.19;42.41
65534;BME280;53640;55.838;37.184;2024-03-29T02:14:03;98173.59;;;4.04;42.59
65534;BME280;53640;55.838;37.184;2024-03-29T02:16:32;98243.47;;;4.49;42.14
65534;BME280;53640;55.838;37.184;2024-03-29T02:18:59;98236.47;;;4.48;42.50
65534;BME280;53640;55.838;37.184;2024-03-29T02:21:26;98251.50;;;4.56;42.75
65534;BME280;53640;55.838;37.184;2024-03-29T02:24:12;98213.97;;;4.42;42.46
65534;BME280;53640;55.838;37.184;2024-03-29T02:26:40;98205.94;;;4.36;42.27
65534;BME280;53640;55.838;37.184;2024-03-29T02:29:08;98137.97;;;3.97;42.38
65534;BME280;53640;55.838;37.184;2024-03-29T02:31:39;98113.03;;;3.90;42.23
65534;BME280;53640;55.838;37.184;2024-03-29T02:34:05;98185.34;;;4.30;42.81
65534;BME280;53640;55.838;37.184;2024-03-29T02:36:33;98226.94;;;4.59;42.52
65534;BME280;53640;55.838;37.184;2024-03-29T02:39:00;98227.81;;;4.59;42.35
65534;BME280;53640;55.838;37.184;2024-03-29T02:41:27;98218.91;;;4.59;42.48
65534;BME280;53640;55.838;37.184;2024-03-29T02:43:56;98221.81;;;4.57;42.57
65534;BME280;53640;55.838;37.184;2024-03-29T02:46:23;98164.13;;;4.21;42.39
65534;BME280;53640;55.838;37.184;2024-03-29T02:48:50;98089.13;;;3.68;42.56
65534;BME280;53640;55.838;37.184;2024-03-29T02:51:16;98087.50;;;3.67;42.49
65534;BME280;53640;55.838;37.184;2024-03-29T02:54:07;98066.88;;;3.61;42.34
65534;BME280;53640;55.838;37.184;2024-03-29T02:57:28;98189.47;;;4.45;42.46
65534;BME280;53640;55.838;37.184;2024-03-29T03:00:04;98121.69;;;3.92;43.29
65534;BME280;53640;55.838;37.184;2024-03-29T03:02:32;98069.38;;;3.63;43.00
65534;BME280;53640;55.838;37.184;2024-03-29T03:04:59;98174.41;;;4.24;43.12
65534;BME280;53640;55.838;37.184;2024-03-29T03:07:27;98068.56;;;3.69;42.73
65534;BME280;53640;55.838;37.184;2024-03-29T03:10:12;98072.25;;;3.61;43.05
65534;BME280;53640;55.838;37.184;2024-03-29T03:12:57;98044.25;;;3.37;43.30
65534;BME280;53640;55.838;37.184;2024-03-29T03:15:24;98187.81;;;4.24;43.66
65534;BME280;53640;55.838;37.184;2024-03-29T03:17:50;98085.44;;;3.63;43.48
65534;BME280;53640;55.838;37.184;2024-03-29T03:20:17;98116.94;;;3.87;43.38
65534;BME280;53640;55.838;37.184;2024-03-29T03:22:43;98085.63;;;3.74;43.35
65534;BME280;53640;55.838;37.184;2024-03-29T03:25:10;98096.53;;;3.80;43.39
65534;BME280;53640;55.838;37.184;2024-03-29T03:27:36;98137.34;;;4.08;43.58
65534;BME280;53640;55.838;37.184;2024-03-29T03:30:03;98026.72;;;3.28;43.74
65534;BME280;53640;55.838;37.184;2024-03-29T03:32:32;98142.28;;;4.11;43.44
65534;BME280;53640;55.838;37.184;2024-03-29T03:34:59;98121.06;;;3.90;43.79
65534;BME280;53640;55.838;37.184;2024-03-29T03:37:26;98003.06;;;3.25;43.44
65534;BME280;53640;55.838;37.184;2024-03-29T03:39:52;98095.34;;;3.69;43.51
65534;BME280;53640;55.838;37.184;2024-03-29T03:42:19;98068.75;;;3.54;44.20
65534;BME280;53640;55.838;37.184;2024-03-29T03:44:46;98056.59;;;3.51;43.45
65534;BME280;53640;55.838;37.184;2024-03-29T03:47:13;98081.53;;;3.65;43.85
65534;BME280;53640;55.838;37.184;2024-03-29T03:49:39;98043.38;;;3.37;44.16
65534;BME280;53640;55.838;37.184;2024-03-29T03:52:05;98056.19;;;3.61;43.75
65534;BME280;53640;55.838;37.184;2024-03-29T03:54:32;98032.91;;;3.42;43.93
65534;BME280;53640;55.838;37.184;2024-03-29T03:56:58;98029.00;;;3.38;44.21
65534;BME280;53640;55.838;37.184;2024-03-29T03:59:26;98021.00;;;3.38;43.96
65534;BME280;53640;55.838;37.184;2024-03-29T04:01:52;98010.28;;;3.38;43.67
65534;BME280;53640;55.838;37.184;2024-03-29T04:04:20;98059.50;;;3.63;44.43
65534;BME280;53640;55.838;37.184;2024-03-29T04:06:47;98139.41;;;4.19;43.81
65534;BME280;53640;55.838;37.184;2024-03-29T04:09:14;98017.09;;;3.47;44.06
65534;BME280;53640;55.838;37.184;2024-03-29T04:11:45;98037.47;;;3.61;44.24
65534;BME280;53640;55.838;37.184;2024-03-29T04:14:12;97986.19;;;3.31;44.35
65534;BME280;53640;55.838;37.184;2024-03-29T04:16:39;98014.22;;;3.48;44.58
65534;BME280;53640;55.838;37.184;2024-03-29T04:19:06;97939.69;;;3.19;43.70
65534;BME280;53640;55.838;37.184;2024-03-29T04:21:34;98011.34;;;3.63;44.45
65534;BME280;53640;55.838;37.184;2024-03-29T04:24:01;98069.56;;;3.94;43.90
65534;BME280;53640;55.838;37.184;2024-03-29T04:26:28;98037.66;;;3.80;43.87
65534;BME280;53640;55.838;37.184;2024-03-29T04:28:54;98016.69;;;3.63;43.97
65534;BME280;53640;55.838;37.184;2024-03-29T04:31:21;97939.31;;;3.42;43.81
65534;BME280;53640;55.838;37.184;2024-03-29T04:34:18;98010.91;;;3.80;44.26
65534;BME280;53640;55.838;37.184;2024-03-29T04:36:44;97999.38;;;3.86;43.84
65534;BME280;53640;55.838;37.184;2024-03-29T04:39:11;98010.50;;;3.96;43.73
65534;BME280;53640;55.838;37.184;2024-03-29T04:41:37;97950.59;;;3.77;43.57
65534;BME280;53640;55.838;37.184;2024-03-29T04:44:05;98051.19;;;4.24;44.25
65534;BME280;53640;55.838;37.184;2024-03-29T04:46:34;97970.13;;;3.91;43.82
65534;BME280;53640;55.838;37.184;2024-03-29T04:49:02;97923.66;;;3.65;43.64
65534;BME280;53640;55.838;37.184;2024-03-29T04:51:32;97942.16;;;3.73;43.79
65534;BME280;53640;55.838;37.184;2024-03-29T04:53:58;97933.50;;;3.71;43.90
65534;BME280;53640;55.838;37.184;2024-03-29T04:56:24;98072.78;;;4.56;43.74
65534;BME280;53640;55.838;37.184;2024-03-29T04:58:51;97980.00;;;4.04;43.51
65534;BME280;53640;55.838;37.184;2024-03-29T05:01:19;97989.44;;;4.13;43.68
65534;BME280;53640;55.838;37.184;2024-03-29T05:03:45;97906.56;;;3.66;43.54
65534;BME280;53640;55.838;37.184;2024-03-29T05:06:12;97975.63;;;4.22;43.69
65534;BME280;53640;55.838;37.184;2024-03-29T05:08:38;97929.53;;;4.07;43.30
65534;BME280;53640;55.838;37.184;2024-03-29T05:11:04;97964.88;;;4.29;43.38
65534;BME280;53640;55.838;37.184;2024-03-29T05:13:34;97932.38;;;4.12;43.63
65534;BME280;53640;55.838;37.184;2024-03-29T05:16:00;97939.53;;;4.25;43.74
65534;BME280;53640;55.838;37.184;2024-03-29T05:18:27;97946.53;;;4.33;43.60
65534;BME280;53640;55.838;37.184;2024-03-29T05:20:53;97931.03;;;4.41;43.40
65534;BME280;53640;55.838;37.184;2024-03-29T05:23:20;97897.72;;;4.24;43.30
65534;BME280;53640;55.838;37.184;2024-03-29T05:25:46;97924.81;;;4.47;43.51
65534;BME280;53640;55.838;37.184;2024-03-29T05:28:16;97956.25;;;4.65;43.15
65534;BME280;53640;55.838;37.184;2024-03-29T05:30:43;97922.56;;;4.44;43.38
65534;BME280;53640;55.838;37.184;2024-03-29T05:33:10;97963.19;;;4.80;43.17
65534;BME280;53640;55.838;37.184;2024-03-29T05:35:36;97969.19;;;4.82;42.99
65534;BME280;53640;55.838;37.184;2024-03-29T05:38:03;97928.06;;;4.56;43.09
65534;BME280;53640;55.838;37.184;2024-03-29T05:40:31;97912.94;;;4.68;43.00
65534;BME280;53640;55.838;37.184;2024-03-29T05:43:03;97953.81;;;4.95;43.02
65534;BME280;53640;55.838;37.184;2024-03-29T05:45:30;97934.78;;;5.04;42.87
65534;BME280;53640;55.838;37.184;2024-03-29T05:47:59;97965.97;;;5.30;42.40
65534;BME280;53640;55.838;37.184;2024-03-29T05:50:28;97982.69;;;5.32;42.28
65534;BME280;53640;55.838;37.184;2024-03-29T05:53:00;97933.75;;;5.05;42.04
65534;BME280;53640;55.838;37.184;2024-03-29T05:55:27;97896.97;;;4.87;41.79
65534;BME280;53640;55.838;37.184;2024-03-29T05:57:55;97941.16;;;5.09;42.06
65534;BME280;53640;55.838;37.184;2024-03-29T06:00:21;97943.56;;;5.17;42.17
65534;BME280;53640;55.838;37.184;2024-03-29T06:02:48;98006.09;;;5.50;41.80
65534;BME280;53640;55.838;37.184;2024-03-29T06:05:15;97955.25;;;5.30;41.63
65534;BME280;53640;55.838;37.184;2024-03-29T06:07:42;97961.28;;;5.25;41.48
65534;BME280;53640;55.838;37.184;2024-03-29T06:10:09;97941.91;;;5.16;41.80
65534;BME280;53640;55.838;37.184;2024-03-29T06:12:36;97989.63;;;5.46;41.37
65534;BME280;53640;55.838;37.184;2024-03-29T06:15:05;97982.28;;;5.35;41.79
65534;BME280;53640;55.838;37.184;2024-03-29T06:17:51;97902.06;;;4.95;41.83
65534;BME280;53640;55.838;37.184;2024-03-29T06:20:17;97871.00;;;4.81;41.56
65534;BME280;53640;55.838;37.184;2024-03-29T06:22:44;97908.63;;;4.99;41.55
65534;BME280;53640;55.838;37.184;2024-03-29T06:25:34;97929.53;;;5.15;41.44
65534;BME280;53640;55.838;37.184;2024-03-29T06:28:08;97964.41;;;5.47;41.14
65534;BME280;53640;55.838;37.184;2024-03-29T06:30:43;97913.59;;;5.27;41.25
65534;BME280;53640;55.838;37.184;2024-03-29T06:33:29;97976.41;;;5.44;41.30
65534;BME280;53640;55.838;37.184;2024-03-29T06:35:56;97917.13;;;5.21;40.92
65534;BME280;53640;55.838;37.184;2024-03-29T06:38:22;97922.53;;;5.14;41.66
65534;BME280;53640;55.838;37.184;2024-03-29T06:40:48;97952.94;;;5.33;41.43
65534;BME280;53640;55.838;37.184;2024-03-29T06:43:16;97975.25;;;5.59;41.02
65534;BME280;53640;55.838;37.184;2024-03-29T06:45:43;97877.06;;;5.01;41.11
65534;BME280;53640;55.838;37.184;2024-03-29T06:48:09;97964.84;;;5.44;41.18
65534;BME280;53640;55.838;37.184;2024-03-29T06:50:39;97871.13;;;4.92;41.04
65534;BME280;53640;55.838;37.184;2024-03-29T06:53:06;97943.66;;;5.36;41.07
65534;BME280;53640;55.838;37.184;2024-03-29T06:55:35;97957.84;;;5.43;41.48
65534;BME280;53640;55.838;37.184;2024-03-29T06:58:03;97939.78;;;5.32;41.35
65534;BME280;53640;55.838;37.184;2024-03-29T07:00:32;97991.84;;;5.74;40.86
65534;BME280;53640;55.838;37.184;2024-03-29T07:02:58;97922.63;;;5.33;41.28
65534;BME280;53640;55.838;37.184;2024-03-29T07:05:25;97930.91;;;5.31;41.58
65534;BME280;53640;55.838;37.184;2024-03-29T07:07:54;97960.78;;;5.60;41.41
65534;BME280;53640;55.838;37.184;2024-03-29T07:10:22;97936.97;;;5.45;41.49
65534;BME280;53640;55.838;37.184;2024-03-29T07:12:48;97893.03;;;5.14;41.46
65534;BME280;53640;55.838;37.184;2024-03-29T07:15:16;97904.91;;;5.32;41.67
65534;BME280;53640;55.838;37.184;2024-03-29T07:17:42;97918.75;;;5.22;41.54
65534;BME280;53640;55.838;37.184;2024-03-29T07:20:10;97925.09;;;5.34;41.46
65534;BME280;53640;55.838;37.184;2024-03-29T07:22:37;97929.41;;;5.35;41.28
65534;BME280;53640;55.838;37.184;2024-03-29T07:25:04;97894.22;;;5.18;41.44
65534;BME280;53640;55.838;37.184;2024-03-29T07:27:33;97918.56;;;5.24;41.74
65534;BME280;53640;55.838;37.184;2024-03-29T07:30:02;97869.41;;;5.05;41.36
65534;BME280;53640;55.838;37.184;2024-03-29T07:32:36;97871.84;;;5.06;41.18
65534;BME280;53640;55.838;37.184;2024-03-29T07:35:03;97927.13;;;5.39;41.47
65534;BME280;53640;55.838;37.184;2024-03-29T07:37:29;97865.13;;;4.97;41.93
65534;BME280;53640;55.838;37.184;2024-03-29T07:39:56;97894.81;;;5.27;41.56
65534;BME280;53640;55.838;37.184;2024-03-29T07:42:22;97919.84;;;5.46;41.35
65534;BME280;53640;55.838;37.184;2024-03-29T07:44:48;97998.13;;;5.86;41.48
65534;BME280;53640;55.838;37.184;2024-03-29T07:47:15;97951.91;;;5.59;41.42
65534;BME280;53640;55.838;37.184;2024-03-29T07:49:41;97968.72;;;5.73;41.71
65534;BME280;53640;55.838;37.184;2024-03-29T07:52:08;97991.84;;;5.74;42.04
65534;BME280;53640;55.838;37.184;2024-03-29T07:54:35;97995.19;;;5.69;41.80
65534;BME280;53640;55.838;37.184;2024-03-29T07:57:01;97992.16;;;5.59;42.06
65534;BME280;53640;55.838;37.184;2024-03-29T07:59:28;97965.63;;;5.51;41.91
65534;BME280;53640;55.838;37.184;2024-03-29T08:01:54;97989.06;;;5.62;42.01
65534;BME280;53640;55.838;37.184;2024-03-29T08:04:22;97972.84;;;5.51;42.52
65534;BME280;53640;55.838;37.184;2024-03-29T08:06:51;97969.22;;;5.63;42.12
65534;BME280;53640;55.838;37.184;2024-03-29T08:09:18;97924.50;;;5.32;42.47
65534;BME280;53640;55.838;37.184;2024-03-29T08:11:44;97968.00;;;5.59;42.76
65534;BME280;53640;55.838;37.184;2024-03-29T08:14:10;97957.31;;;5.53;43.57
65534;BME280;53640;55.838;37.184;2024-03-29T08:16:38;97965.00;;;5.49;44.03
65534;BME280;53640;55.838;37.184;2024-03-29T08:19:05;97921.72;;;5.14;46.04
65534;BME280;53640;55.838;37.184;2024-03-29T08:21:31;97934.34;;;5.38;45.75
65534;BME280;53640;55.838;37.184;2024-03-29T08:23:57;97823.72;;;4.61;45.47
65534;BME280;53640;55.838;37.184;2024-03-29T08:26:24;97953.78;;;5.34;45.29
65534;BME280;53640;55.838;37.184;2024-03-29T08:28:51;97929.22;;;5.05;45.36
65534;BME280;53640;55.838;37.184;2024-03-29T08:31:18;97979.41;;;5.30;46.20
65534;BME280;53640;55.838;37.184;2024-03-29T08:33:46;97910.53;;;4.92;45.95
65534;BME280;53640;55.838;37.184;2024-03-29T08:36:13;97948.25;;;5.22;45.55
65534;BME280;53640;55.838;37.184;2024-03-29T08:38:42;97975.00;;;5.42;45.59
65534;BME280;53640;55.838;37.184;2024-03-29T08:41:20;97943.66;;;5.36;45.11
65534;BME280;53640;55.838;37.184;2024-03-29T08:44:58;97921.16;;;5.05;45.49
65534;BME280;53640;55.838;37.184;2024-03-29T08:47:41;97852.25;;;4.49;45.89
65534;BME280;53640;55.838;37.184;2024-03-29T08:50:10;97876.47;;;4.67;45.59
65534;BME280;53640;55.838;37.184;2024-03-29T08:52:38;97873.16;;;4.65;45.29
65534;BME280;53640;55.838;37.184;2024-03-29T08:55:13;97887.72;;;4.83;45.62
65534;BME280;53640;55.838;37.184;2024-03-29T08:57:44;97865.56;;;4.62;45.67
65534;BME280;53640;55.838;37.184;2024-03-29T09:00:12;97928.78;;;5.08;45.20
65534;BME280;53640;55.838;37.184;2024-03-29T09:02:39;97834.09;;;4.51;45.35
65534;BME280;53640;55.838;37.184;2024-03-29T09:05:08;97860.97;;;4.69;45.14
65534;BME280;53640;55.838;37.184;2024-03-29T09:07:44;97868.28;;;4.87;45.27
65534;BME280;53640;55.838;37.184;2024-03-29T09:10:14;97964.25;;;5.42;45.33
65534;BME280;53640;55.838;37.184;2024-03-29T09:12:41;97850.00;;;4.78;45.29
65534;BME280;53640;55.838;37.184;2024-03-29T09:15:07;97793.91;;;4.51;45.28
65534;BME280;53640;55.838;37.184;2024-03-29T09:17:41;97814.84;;;4.67;44.94
65534;BME280;53640;55.838;37.184;2024-03-29T09:20:11;97963.97;;;5.50;45.16
65534;BME280;53640;55.838;37.184;2024-03-29T09:22:37;97930.81;;;5.38;44.94
65534;BME280;53640;55.838;37.184;2024-03-29T09:25:05;97941.22;;;5.34;44.91
65534;BME280;53640;55.838;37.184;2024-03-29T09:27:32;97891.66;;;5.05;44.99
65534;BME280;53640;55.838;37.184;2024-03-29T09:30:04;97870.91;;;4.94;44.86
65534;BME280;53640;55.838;37.184;2024-03-29T09:32:33;97829.16;;;4.80;44.39
65534;BME280;53640;55.838;37.184;2024-03-29T09:35:12;97917.50;;;5.25;44.61
65534;BME280;53640;55.838;37.184;2024-03-29T09:37:39;97839.44;;;4.83;44.67
65534;BME280;53640;55.838;37.184;2024-03-29T09:40:06;97944.28;;;5.56;44.78
65534;BME280;53640;55.838;37.184;2024-03-29T09:42:35;97859.09;;;5.02;44.94
65534;BME280;53640;55.838;37.184;2024-03-29T09:45:02;97792.00;;;4.58;44.67
65534;BME280;53640;55.838;37.184;2024-03-29T09:47:33;97823.81;;;4.80;45.19
65534;BME280;53640;55.838;37.184;2024-03-29T09:50:03;97864.63;;;5.07;45.00
65534;BME280;53640;55.838;37.184;2024-03-29T09:55:29;97784.56;;;4.60;44.91
65534;BME280;53640;55.838;37.184;2024-03-29T10:00:44;97868.59;;;5.22;44.99
65534;BME280;53640;55.838;37.184;2024-03-29T10:03:11;97865.69;;;5.31;44.73
65534;BME280;53640;55.838;37.184;2024-03-29T10:08:29;97895.94;;;5.38;44.77
65534;BME280;53640;55.838;37.184;2024-03-29T10:10:57;97876.34;;;5.37;44.90
65534;BME280;53640;55.838;37.184;2024-03-29T10:13:24;97838.94;;;5.17;44.72
65534;BME280;53640;55.838;37.184;2024-03-29T10:15:54;97792.25;;;5.00;44.86
65534;BME280;53640;55.838;37.184;2024-03-29T10:18:26;97818.47;;;5.23;44.59
65534;BME280;53640;55.838;37.184;2024-03-29T10:21:05;97899.75;;;5.92;44.59
65534;BME280;53640;55.838;37.184;2024-03-29T10:23:35;97799.53;;;5.43;44.45
65534;BME280;53640;55.838;37.184;2024-03-29T10:26:03;97835.00;;;5.82;44.47
65534;BME280;53640;55.838;37.184;2024-03-29T10:28:32;97852.28;;;6.04;44.18
65534;BME280;53640;55.838;37.184;2024-03-29T10:31:07;97755.53;;;5.44;43.95
65534;BME280;53640;55.838;37.184;2024-03-29T10:33:34;97803.16;;;5.85;43.80
65534;BME280;53640;55.838;37.184;2024-03-29T10:36:02;97807.63;;;5.91;43.85
65534;BME280;53640;55.838;37.184;2024-03-29T10:38:32;97745.41;;;5.64;43.80
65534;BME280;53640;55.838;37.184;2024-03-29T10:41:01;97802.88;;;6.35;43.48
65534;BME280;53640;55.838;37.184;2024-03-29T10:43:29;97754.25;;;6.13;43.22
65534;BME280;53640;55.838;37.184;2024-03-29T10:45:57;97774.25;;;6.29;42.65
65534;BME280;53640;55.838;37.184;2024-03-29T10:48:30;97826.25;;;6.77;42.62
65534;BME280;53640;55.838;37.184;2024-03-29T10:51:04;97817.72;;;6.80;42.66
65534;BME280;53640;55.838;37.184;2024-03-29T10:56:22;97861.78;;;6.97;42.72
65534;BME280;53640;55.838;37.184;2024-03-29T10:58:56;97833.34;;;7.01;42.59
65534;BME280;53640;55.838;37.184;2024-03-29T11:01:26;97767.19;;;6.58;42.36
65534;BME280;53640;55.838;37.184;2024-03-29T11:04:25;97725.00;;;6.47;42.64
65534;BME280;53640;55.838;37.184;2024-03-29T11:07:12;97716.09;;;6.58;42.51
65534;BME280;53640;55.838;37.184;2024-03-29T11:15:33;97815.19;;;10.37;38.22
65534;BME280;53640;55.838;37.184;2024-03-29T11:18:01;97859.91;;;11.25;36.87
65534;BME280;53640;55.838;37.184;2024-03-29T11:20:28;97835.63;;;11.83;35.64
65534;BME280;53640;55.838;37.184;2024-03-29T11:26:00;97868.31;;;13.23;33.19
65534;BME280;53640;55.838;37.184;2024-03-29T11:31:07;97862.28;;;14.52;31.63
65534;BME280;53640;55.838;37.184;2024-03-29T11:33:34;97854.00;;;14.82;30.75
65534;BME280;53640;55.838;37.184;2024-03-29T11:36:11;97855.19;;;15.05;29.89
65534;BME280;53640;55.838;37.184;2024-03-29T11:41:48;97768.34;;;15.76;29.48
65534;BME280;53640;55.838;37.184;2024-03-29T11:44:15;97724.31;;;15.88;28.49
65534;BME280;53640;55.838;37.184;2024-03-29T11:46:42;97759.53;;;16.27;27.47
65534;BME280;53640;55.838;37.184;2024-03-29T11:49:10;97841.16;;;17.42;27.39
65534;BME280;53640;55.838;37.184;2024-03-29T11:51:37;97761.81;;;17.09;26.20
65534;BME280;53640;55.838;37.184;2024-03-29T11:54:04;97765.59;;;17.13;26.11
65534;BME280;53640;55.838;37.184;2024-03-29T11:56:31;97777.81;;;17.35;25.87
65534;BME280;53640;55.838;37.184;2024-03-29T11:58:57;97760.50;;;17.06;25.95
65534;BME280;53640;55.838;37.184;2024-03-29T12:01:26;97790.00;;;17.70;25.45
65534;BME280;53640;55.838;37.184;2024-03-29T12:03:55;97759.56;;;17.30;25.12
65534;BME280;53640;55.838;37.184;2024-03-29T12:06:22;97757.16;;;17.42;25.21
65534;BME280;53640;55.838;37.184;2024-03-29T12:08:49;97779.28;;;17.73;25.40
65534;BME280;53640;55.838;37.184;2024-03-29T12:11:16;97744.88;;;17.26;25.59
65534;BME280;53640;55.838;37.184;2024-03-29T12:13:44;97789.38;;;17.13;25.35
65534;BME280;53640;55.838;37.184;2024-03-29T12:16:11;97709.94;;;16.20;26.09
65534;BME280;53640;55.838;37.184;2024-03-29T12:18:38;97796.34;;;16.10;26.73
65534;BME280;53640;55.838;37.184;2024-03-29T12:21:05;97784.78;;;15.42;27.52
65534;BME280;53640;55.838;37.184;2024-03-29T12:23:31;97783.09;;;14.87;28.37
65534;BME280;53640;55.838;37.184;2024-03-29T12:25:58;97808.00;;;14.71;29.03
65534;BME280;53640;55.838;37.184;2024-03-29T12:28:26;97761.03;;;13.95;29.85
65534;BME280;53640;55.838;37.184;2024-03-29T12:30:56;97790.78;;;13.76;29.98
65534;BME280;53640;55.838;37.184;2024-03-29T12:33:23;97749.84;;;13.16;30.37
65534;BME280;53640;55.838;37.184;2024-03-29T12:35:51;97787.66;;;12.87;31.91
65534;BME280;53640;55.838;37.184;2024-03-29T12:38:44;97862.03;;;12.86;32.93
65534;BME280;53640;55.838;37.184;2024-03-29T12:41:22;97755.63;;;11.81;33.00
65534;BME280;53640;55.838;37.184;2024-03-29T12:43:54;97729.00;;;11.15;34.46
65534;BME280;53640;55.838;37.184;2024-03-29T12:46:20;97713.69;;;10.93;33.72
65534;BME280;53640;55.838;37.184;2024-03-29T12:49:03;97774.97;;;11.05;33.91
65534;BME280;53640;55.838;37.184;2024-03-29T12:51:47;97703.00;;;10.44;35.06
65534;BME280;53640;55.838;37.184;2024-03-29T12:54:21;97801.81;;;11.06;34.80
65534;BME280;53640;55.838;37.184;2024-03-29T12:57:16;97709.31;;;10.23;36.43
65534;BME280;53640;55.838;37.184;2024-03-29T12:59:54;97712.31;;;10.26;36.61
65534;BME280;53640;55.838;37.184;2024-03-29T13:02:44;97714.72;;;10.23;36.42
65534;BME280;53640;55.838;37.184;2024-03-29T13:06:12;97707.84;;;10.10;36.36
65534;BME280;53640;55.838;37.184;2024-03-29T13:08:46;97687.66;;;9.91;36.98
65534;BME280;53640;55.838;37.184;2024-03-29T13:11:39;97700.59;;;9.89;37.21
65534;BME280;53640;55.838;37.184;2024-03-29T13:14:26;97677.94;;;9.68;37.71
65534;BME280;53640;55.838;37.184;2024-03-29T13:16:53;97730.25;;;10.05;37.67
65534;BME280;53640;55.838;37.184;2024-03-29T13:19:19;97742.97;;;10.37;37.78
65534;BME280;53640;55.838;37.184;2024-03-29T13:21:53;97824.03;;;11.13;37.87
65534;BME280;53640;55.838;37.184;2024-03-29T13:24:19;97771.00;;;10.80;37.82
65534;BME280;53640;55.838;37.184;2024-03-29T13:26:46;97741.00;;;10.54;37.37
65534;BME280;53640;55.838;37.184;2024-03-29T13:29:12;97808.94;;;10.85;37.78
65534;BME280;53640;55.838;37.184;2024-03-29T13:31:44;97827.09;;;10.90;37.70
65534;BME280;53640;55.838;37.184;2024-03-29T13:34:13;97780.78;;;10.59;37.76
65534;BME280;53640;55.838;37.184;2024-03-29T13:36:40;97812.19;;;10.60;38.54